Time;durP1;ratioP1;P1;durP2;ratioP2;P2;SDS_P1;SDS_P2;PMS_P1;PMS_P2;Temp;Humidity;BMP_temperature;BMP_pressure;BME280_temperature;BME280_humidity;BME280_pressure;Samples;Min_cycle;Max_cycle;Signal;HPM_P1;HPM_P2
2022/09/20 00:01:33;;;;;;;1.58;1.48;;;10.90;99.90;;;;;;5052650;28;20225;-83
2022/09/20 00:04:03;;;;;;;1.83;1.50;;;10.90;99.90;;;;;;5052650;28;20198;-83
2022/09/20 00:06:36;;;;;;;3.05;1.63;;;10.90;99.90;;;;;;5053038;28;20202;-83
2022/09/20 00:09:05;;;;;;;2.42;1.50;;;10.90;99.90;;;;;;5053157;28;20233;-83
2022/09/20 00:11:35;;;;;;;5.63;2.00;;;10.80;99.90;;;;;;5052907;28;20189;-83
2022/09/20 00:14:07;;;;;;;2.15;1.50;;;10.80;99.90;;;;;;5053506;28;20213;-83
2022/09/20 00:16:37;;;;;;;1.50;1.23;;;10.80;99.90;;;;;;5052693;28;20194;-83
2022/09/20 00:19:06;;;;;;;1.58;1.48;;;10.80;99.90;;;;;;5052312;28;20225;-83
2022/09/20 00:21:37;;;;;;;1.58;1.25;;;10.80;99.90;;;;;;5052923;28;20225;-83
2022/09/20 00:24:06;;;;;;;3.17;1.67;;;10.80;99.90;;;;;;5052494;28;20222;-83
2022/09/20 00:26:34;;;;;;;1.75;1.65;;;10.80;99.90;;;;;;5053041;28;20216;-83
2022/09/20 00:29:03;;;;;;;1.50;1.40;;;10.70;99.90;;;;;;5052509;28;20236;-84
2022/09/20 00:31:31;;;;;;;2.20;1.95;;;10.70;99.90;;;;;;5052747;28;20194;-84
2022/09/20 00:36:46;;;;;;;1.98;1.88;;;10.60;99.90;;;;;;5057105;28;20198;-84
2022/09/20 00:39:16;;;;;;;2.05;1.85;;;10.60;99.90;;;;;;5056007;28;20214;-84
2022/09/20 00:41:44;;;;;;;3.25;1.35;;;10.60;99.90;;;;;;5056376;28;20226;-83
2022/09/20 00:44:41;;;;;;;2.35;2.15;;;10.60;99.90;;;;;;5054463;28;20234;-83
2022/09/20 00:47:15;;;;;;;1.48;1.38;;;10.50;99.90;;;;;;5056369;28;20202;-84
2022/09/20 00:49:43;;;;;;;1.60;1.50;;;10.50;99.90;;;;;;5056316;28;20237;-84
2022/09/20 00:52:14;;;;;;;1.23;1.23;;;10.50;99.90;;;;;;5056361;28;20205;-83
2022/09/20 00:54:42;;;;;;;1.73;1.63;;;10.50;99.90;;;;;;5056412;28;20288;-83
2022/09/20 00:57:11;;;;;;;2.33;1.55;;;10.50;99.90;;;;;;5055867;28;20213;-83
2022/09/20 00:59:42;;;;;;;2.05;1.65;;;10.50;99.90;;;;;;5056519;28;20226;-84
2022/09/20 01:02:16;;;;;;;0.93;0.93;;;10.40;99.90;;;;;;5055693;28;20245;-84
2022/09/20 01:04:46;;;;;;;2.45;1.38;;;10.50;99.90;;;;;;5056476;28;20213;-84
2022/09/20 01:07:21;;;;;;;1.70;1.60;;;10.40;99.90;;;;;;5055948;28;20216;-84
2022/09/20 01:09:49;;;;;;;4.45;1.65;;;10.50;99.90;;;;;;5055944;28;20221;-84
2022/09/20 01:12:21;;;;;;;1.35;1.25;;;10.50;99.90;;;;;;5056214;28;20194;-84
2022/09/20 01:14:52;;;;;;;1.20;1.15;;;10.40;99.90;;;;;;5055586;28;20202;-80
2022/09/20 01:17:23;;;;;;;1.73;1.35;;;10.40;99.90;;;;;;5055895;28;20304;-81
2022/09/20 01:20:07;;;;;;;1.55;1.45;;;10.40;99.90;;;;;;5055133;28;20224;-81
2022/09/20 01:22:48;;;;;;;1.40;1.30;;;10.40;99.90;;;;;;5055883;28;20221;-80
2022/09/20 01:25:26;;;;;;;1.73;1.58;;;10.40;99.90;;;;;;5055644;28;20205;-81
2022/09/20 01:27:56;;;;;;;1.48;1.38;;;10.40;99.90;;;;;;5055891;28;20206;-79
2022/09/20 01:30:31;;;;;;;1.40;1.30;;;10.30;99.90;;;;;;5055640;28;20210;-80
2022/09/20 01:33:09;;;;;;;2.20;1.63;;;10.40;99.90;;;;;;5055844;28;20205;-79
2022/09/20 01:35:41;;;;;;;1.90;1.67;;;10.40;99.90;;;;;;5055678;28;20201;-79
2022/09/20 01:38:24;;;;;;;1.70;1.60;;;10.40;99.90;;;;;;5055755;28;20201;-80
2022/09/20 01:41:02;;;;;;;6.97;1.65;;;10.40;99.90;;;;;;5055547;28;20205;-81
2022/09/20 01:43:37;;;;;;;1.40;1.30;;;10.40;99.90;;;;;;5055741;28;20296;-80
2022/09/20 01:46:18;;;;;;;2.50;1.83;;;10.40;99.90;;;;;;5054225;28;20204;-81
2022/09/20 01:48:49;;;;;;;1.55;1.45;;;10.40;99.90;;;;;;5054616;28;20260;-81
2022/09/20 01:52:14;;;;;;;1.50;1.40;;;10.40;99.90;;;;;;5055427;28;20201;-79
2022/09/20 01:55:15;;;;;;;1.40;1.30;;;10.40;99.90;;;;;;4993896;28;20206;-80
2022/09/20 01:58:14;;;;;;;1.40;1.30;;;10.40;99.90;;;;;;5054388;28;20217;-80
2022/09/20 02:01:04;;;;;;;2.00;1.85;;;10.40;99.90;;;;;;5054987;28;20205;-80
2022/09/20 02:04:02;;;;;;;1.50;1.40;;;10.40;99.90;;;;;;5055092;28;20265;-80
2022/09/20 02:06:51;;;;;;;3.28;1.48;;;10.40;99.90;;;;;;5049976;28;20214;-80
2022/09/20 02:09:35;;;;;;;4.32;1.52;;;10.40;99.90;;;;;;5055078;28;20238;-80
2022/09/20 02:12:33;;;;;;;1.65;1.55;;;10.40;99.90;;;;;;5054668;28;20205;-79
2022/09/20 02:15:13;;;;;;;1.02;1.02;;;10.40;99.90;;;;;;5054645;28;20279;-80
2022/09/20 02:17:55;;;;;;;1.15;1.15;;;10.30;99.90;;;;;;5054867;28;20196;-80
2022/09/20 02:20:36;;;;;;;1.13;1.10;;;10.30;99.90;;;;;;5054928;28;20205;-80
2022/09/20 02:23:17;;;;;;;1.17;1.17;;;10.30;99.90;;;;;;5054436;28;20232;-80
2022/09/20 02:26:00;;;;;;;1.67;1.55;;;10.30;99.90;;;;;;5054523;28;20208;-79
2022/09/20 02:28:51;;;;;;;1.65;1.55;;;10.20;99.90;;;;;;5054090;28;20237;-80
2022/09/20 02:31:56;;;;;;;1.65;1.55;;;10.20;99.90;;;;;;5054399;28;20212;-79
2022/09/20 02:35:13;;;;;;;0.95;0.95;;;10.20;99.90;;;;;;5054103;28;20207;-82
2022/09/20 02:37:57;;;;;;;1.55;1.45;;;10.20;99.90;;;;;;5030353;28;20232;-83
2022/09/20 02:40:40;;;;;;;1.67;1.33;;;10.20;99.90;;;;;;5054277;28;20201;-82
2022/09/20 02:43:17;;;;;;;1.25;1.25;;;10.20;99.90;;;;;;5054228;28;20251;-83
2022/09/20 02:45:53;;;;;;;1.52;1.42;;;10.20;99.90;;;;;;5054115;28;20205;-83
2022/09/20 02:48:27;;;;;;;1.52;1.42;;;10.20;99.90;;;;;;5054373;28;20295;-83
2022/09/20 02:51:05;;;;;;;1.20;1.15;;;10.20;99.90;;;;;;5053351;28;20207;-82
2022/09/20 02:53:42;;;;;;;1.50;1.40;;;10.20;99.90;;;;;;5054206;28;20200;-84
2022/09/20 02:56:20;;;;;;;1.15;1.10;;;10.20;99.90;;;;;;5053951;28;20216;-83
2022/09/20 02:58:57;;;;;;;1.60;1.50;;;10.30;99.90;;;;;;5052553;28;20218;-83
2022/09/20 03:01:38;;;;;;;2.95;2.10;;;10.30;99.90;;;;;;5054441;28;20205;-83
2022/09/20 03:04:21;;;;;;;1.50;1.40;;;10.20;99.90;;;;;;5053709;28;20194;-82
2022/09/20 03:06:58;;;;;;;1.35;1.33;;;10.30;99.90;;;;;;5053954;28;20190;-83
2022/09/20 03:09:35;;;;;;;2.03;1.70;;;10.30;99.90;;;;;;5053724;28;20232;-84
2022/09/20 03:12:14;;;;;;;1.88;1.50;;;10.20;99.90;;;;;;5053262;28;20281;-83
2022/09/20 03:14:50;;;;;;;1.60;1.50;;;10.20;99.90;;;;;;5053637;28;20201;-83
2022/09/20 03:17:30;;;;;;;1.83;1.73;;;10.20;99.90;;;;;;5053841;28;20199;-83
2022/09/20 03:20:15;;;;;;;2.55;1.73;;;10.20;99.90;;;;;;5053668;28;20235;-83
2022/09/20 03:22:55;;;;;;;1.65;1.55;;;10.20;99.90;;;;;;5050241;28;20219;-83
2022/09/20 03:25:38;;;;;;;1.77;1.55;;;10.20;99.90;;;;;;5053524;28;20193;-83
2022/09/20 03:28:22;;;;;;;1.75;1.63;;;10.20;99.90;;;;;;5053314;28;20205;-83
2022/09/20 03:31:00;;;;;;;4.45;1.35;;;10.20;99.90;;;;;;5033770;28;20206;-83
2022/09/20 03:33:41;;;;;;;2.20;1.98;;;10.10;99.90;;;;;;5038691;28;20202;-84
2022/09/20 03:36:32;;;;;;;2.90;1.88;;;10.10;99.90;;;;;;5053585;28;20205;-84
2022/09/20 03:39:11;;;;;;;2.35;1.42;;;10.10;99.90;;;;;;5052644;28;20225;-84
2022/09/20 03:41:53;;;;;;;2.25;2.10;;;10.10;99.90;;;;;;5053479;28;20200;-83
2022/09/20 03:44:34;;;;;;;2.63;2.22;;;10.10;99.90;;;;;;5053098;28;20205;-83
2022/09/20 03:47:17;;;;;;;3.03;2.30;;;10.00;99.90;;;;;;5053595;28;20212;-83
2022/09/20 03:50:05;;;;;;;2.47;2.20;;;10.10;99.90;;;;;;5053408;28;20226;-83
2022/09/20 03:53:13;;;;;;;3.17;2.50;;;10.10;99.90;;;;;;5052978;28;20193;-83
2022/09/20 03:56:05;;;;;;;2.83;2.33;;;10.00;99.90;;;;;;5053072;28;20212;-83
2022/09/20 03:58:57;;;;;;;2.38;1.80;;;10.10;99.90;;;;;;5052988;28;20225;-83
2022/09/20 04:01:41;;;;;;;1.75;1.65;;;10.00;99.90;;;;;;5053051;28;20208;-84
2022/09/20 04:04:17;;;;;;;2.47;2.00;;;10.00;99.90;;;;;;5052902;28;20217;-83
2022/09/20 04:07:05;;;;;;;2.15;2.05;;;10.00;99.90;;;;;;5052674;28;20206;-83
2022/09/20 04:09:51;;;;;;;2.55;1.85;;;10.00;99.90;;;;;;5056152;28;20229;-83
2022/09/20 04:12:28;;;;;;;2.78;2.58;;;10.00;99.90;;;;;;5059965;28;20202;-83
2022/09/20 04:15:08;;;;;;;3.05;2.58;;;10.00;99.90;;;;;;5059584;28;20216;-83
2022/09/20 04:17:46;;;;;;;1.88;1.77;;;10.00;99.90;;;;;;5060126;28;20208;-83
2022/09/20 04:20:20;;;;;;;2.55;2.35;;;10.00;99.90;;;;;;5059203;28;20223;-83
2022/09/20 04:22:52;;;;;;;2.20;2.10;;;10.00;99.90;;;;;;5059426;28;20305;-82
2022/09/20 04:25:23;;;;;;;2.40;2.20;;;9.90;99.90;;;;;;5059057;28;20201;-83
2022/09/20 04:27:58;;;;;;;2.72;2.53;;;10.00;99.90;;;;;;5060195;28;20201;-80
2022/09/20 04:30:36;;;;;;;2.20;2.00;;;10.00;99.90;;;;;;5058491;28;20204;-81
2022/09/20 04:33:12;;;;;;;2.15;1.98;;;9.90;99.90;;;;;;5058938;28;20189;-81
2022/09/20 04:38:32;;;;;;;3.00;2.70;;;10.00;99.90;;;;;;5058316;28;20236;-86
2022/09/20 04:41:19;;;;;;;2.50;2.28;;;10.00;99.90;;;;;;5059163;28;20320;-81
2022/09/20 04:44:08;;;;;;;2.83;2.60;;;10.00;99.90;;;;;;5059520;28;20217;-79
2022/09/20 04:47:16;;;;;;;3.42;2.38;;;10.00;99.90;;;;;;5058822;28;20206;-81
2022/09/20 04:50:28;;;;;;;3.50;2.72;;;10.00;99.90;;;;;;5059184;28;20240;-80
2022/09/20 04:53:21;;;;;;;2.58;2.35;;;10.00;99.90;;;;;;5039308;28;20206;-80
2022/09/20 04:55:54;;;;;;;1.90;1.80;;;10.00;99.90;;;;;;5047209;28;20218;-82
2022/09/20 04:58:47;;;;;;;2.28;2.08;;;10.10;99.90;;;;;;5058930;28;20230;-80
2022/09/20 05:01:58;;;;;;;2.55;2.35;;;10.10;99.90;;;;;;5060814;28;20200;-80
2022/09/20 05:05:05;;;;;;;3.40;1.67;;;10.10;99.90;;;;;;5079433;28;20228;-80
2022/09/20 05:08:12;;;;;;;1.80;1.65;;;10.10;99.90;;;;;;5039370;28;20209;-80
2022/09/20 05:11:17;;;;;;;6.18;2.03;;;10.10;99.90;;;;;;5038236;28;20260;-81
2022/09/20 05:14:04;;;;;;;1.58;1.48;;;10.10;99.90;;;;;;5039006;28;20292;-80
2022/09/20 05:16:52;;;;;;;2.55;1.73;;;10.10;99.90;;;;;;5039308;28;20202;-81
2022/09/20 05:19:30;;;;;;;1.13;1.13;;;10.10;99.90;;;;;;5039130;28;20313;-81
2022/09/20 05:22:30;;;;;;;1.38;1.30;;;10.20;99.90;;;;;;5035615;28;20205;-81
2022/09/20 05:25:28;;;;;;;1.38;1.27;;;10.20;99.90;;;;;;5035725;28;20199;-79
2022/09/20 05:28:02;;;;;;;2.13;1.63;;;10.20;99.90;;;;;;5026964;28;20209;-80
2022/09/20 05:30:37;;;;;;;1.90;1.80;;;10.20;99.90;;;;;;5036143;28;20201;-80
2022/09/20 05:33:17;;;;;;;1.98;1.77;;;10.20;99.90;;;;;;5036267;28;20202;-80
2022/09/20 05:35:53;;;;;;;1.70;1.60;;;10.20;99.90;;;;;;5036051;28;20221;-80
2022/09/20 05:38:32;;;;;;;5.07;1.73;;;10.30;99.90;;;;;;5047016;28;20217;-80
2022/09/20 05:41:12;;;;;;;2.15;2.00;;;10.30;99.90;;;;;;5055006;28;20211;-80
2022/09/20 05:43:51;;;;;;;4.72;2.45;;;10.30;99.90;;;;;;5058541;28;20213;-80
2022/09/20 05:46:33;;;;;;;1.88;1.77;;;10.30;99.90;;;;;;5045050;28;20201;-80
2022/09/20 05:49:10;;;;;;;2.65;2.40;;;10.30;99.90;;;;;;5067334;28;20224;-80
2022/09/20 05:51:53;;;;;;;1.85;1.75;;;10.30;99.90;;;;;;5055452;28;20205;-80
2022/09/20 05:54:42;;;;;;;2.63;2.33;;;10.30;99.90;;;;;;5054365;28;20197;-80
2022/09/20 05:57:21;;;;;;;2.45;1.70;;;10.30;99.90;;;;;;5054916;28;20212;-80
2022/09/20 06:00:01;;;;;;;2.03;1.92;;;10.30;99.90;;;;;;5054301;28;20228;-80
2022/09/20 06:02:39;;;;;;;2.30;2.03;;;10.40;99.90;;;;;;5055176;28;20190;-80
2022/09/20 06:05:15;;;;;;;2.58;2.38;;;10.30;99.90;;;;;;5054715;28;20218;-80
2022/09/20 06:08:14;;;;;;;14.68;2.92;;;10.30;99.90;;;;;;5035441;28;20199;-80
2022/09/20 06:10:54;;;;;;;1.90;1.80;;;10.30;99.90;;;;;;5014398;28;20205;-81
2022/09/20 06:13:44;;;;;;;2.35;2.15;;;10.30;99.90;;;;;;5055260;28;20202;-80
2022/09/20 06:16:24;;;;;;;2.20;2.00;;;10.30;99.90;;;;;;5056357;28;20206;-80
2022/09/20 06:19:05;;;;;;;2.63;2.42;;;10.30;99.90;;;;;;5054838;28;20229;-83
2022/09/20 06:21:45;;;;;;;1.85;1.75;;;10.30;99.90;;;;;;5054152;28;20201;-82
2022/09/20 06:24:25;;;;;;;3.10;2.38;;;10.30;99.90;;;;;;5034718;28;20228;-82
2022/09/20 06:26:56;;;;;;;2.90;2.65;;;10.30;99.90;;;;;;5044263;28;20198;-83
2022/09/20 06:29:30;;;;;;;4.68;1.95;;;10.30;99.90;;;;;;5053701;28;20234;-82
2022/09/20 06:31:59;;;;;;;2.72;2.30;;;10.30;99.90;;;;;;5034684;28;20198;-85
2022/09/20 06:34:28;;;;;;;2.50;2.33;;;10.40;99.90;;;;;;5034583;28;20209;-85
2022/09/20 06:42:50;;;;;;;2.72;2.53;;;10.60;99.90;;;;;;5054245;28;20274;-85
2022/09/20 06:45:18;;;;;;;2.67;2.47;;;10.70;99.90;;;;;;5053792;28;20221;-86
2022/09/20 06:47:47;;;;;;;2.67;2.45;;;10.70;99.90;;;;;;5053990;28;20202;-85
2022/09/20 06:50:16;;;;;;;2.17;1.98;;;10.90;99.90;;;;;;5053356;28;20236;-85
2022/09/20 06:52:45;;;;;;;2.10;1.90;;;10.90;99.90;;;;;;5053813;28;20208;-85
2022/09/20 06:55:23;;;;;;;2.35;2.00;;;10.90;99.90;;;;;;5052923;28;20201;-83
2022/09/20 06:57:58;;;;;;;2.97;2.50;;;10.90;99.90;;;;;;5054390;28;20213;-85
2022/09/20 07:00:26;;;;;;;2.10;2.00;;;10.90;99.90;;;;;;5054045;28;20194;-85
2022/09/20 07:02:55;;;;;;;2.38;2.17;;;10.90;99.90;;;;;;5053856;28;20205;-85
2022/09/20 07:05:25;;;;;;;2.88;2.63;;;11.00;99.90;;;;;;5053944;28;20245;-85
2022/09/20 07:08:00;;;;;;;3.33;2.50;;;11.00;99.90;;;;;;5053893;28;20204;-85
2022/09/20 07:10:29;;;;;;;5.38;2.63;;;11.10;99.90;;;;;;5053223;28;20199;-85
2022/09/20 07:13:00;;;;;;;2.10;1.95;;;11.10;99.90;;;;;;5053660;28;20212;-85
2022/09/20 07:15:31;;;;;;;2.25;2.05;;;11.20;99.90;;;;;;5052946;28;20215;-82
2022/09/20 07:18:00;;;;;;;2.30;2.03;;;11.30;99.90;;;;;;5033763;28;20258;-82
2022/09/20 07:20:28;;;;;;;1.98;1.80;;;11.30;99.90;;;;;;5040635;28;20194;-84
2022/09/20 07:22:57;;;;;;;1.83;1.73;;;11.30;99.90;;;;;;5053735;28;20234;-83
2022/09/20 07:25:25;;;;;;;1.73;1.63;;;11.30;99.90;;;;;;5053149;28;20277;-79
2022/09/20 07:27:53;;;;;;;1.92;1.83;;;11.30;99.90;;;;;;5053548;28;20204;-83
2022/09/20 07:30:23;;;;;;;1.98;1.88;;;11.40;99.90;;;;;;5053195;28;20225;-85
2022/09/20 07:32:52;;;;;;;1.60;1.50;;;11.40;99.90;;;;;;5054392;28;20232;-85
2022/09/20 07:35:21;;;;;;;2.00;1.90;;;11.40;99.90;;;;;;5053368;28;20236;-85
2022/09/20 07:37:55;;;;;;;2.75;2.13;;;11.30;99.90;;;;;;5053325;28;20232;-84
2022/09/20 07:40:26;;;;;;;2.25;2.05;;;11.40;99.90;;;;;;5052465;28;20232;-85
2022/09/20 07:42:57;;;;;;;3.28;2.05;;;11.40;99.90;;;;;;5063019;28;20221;-82
2022/09/20 07:45:27;;;;;;;4.10;2.67;;;11.40;99.90;;;;;;5066374;28;20210;-81
2022/09/20 07:48:04;;;;;;;2.10;1.90;;;11.50;99.90;;;;;;5052418;28;20205;-82
2022/09/20 07:50:32;;;;;;;2.55;2.15;;;11.50;99.90;;;;;;5052852;28;20197;-82
2022/09/20 07:53:00;;;;;;;2.35;2.15;;;11.60;99.90;;;;;;5051284;28;20242;-82
2022/09/20 07:55:29;;;;;;;2.33;2.17;;;11.60;99.90;;;;;;5057067;28;20197;-82
2022/09/20 07:57:58;;;;;;;1.92;1.83;;;11.70;99.90;;;;;;5055907;28;20249;-83
2022/09/20 08:00:28;;;;;;;2.25;2.05;;;11.70;99.90;;;;;;5052739;28;20256;-82
2022/09/20 08:03:00;;;;;;;2.13;2.03;;;11.70;99.90;;;;;;5060195;28;20204;-83
2022/09/20 08:05:28;;;;;;;2.22;2.08;;;11.70;99.90;;;;;;5072676;28;20227;-83
2022/09/20 08:07:58;;;;;;;2.58;2.25;;;11.80;99.90;;;;;;5073205;28;20288;-82
2022/09/20 08:10:27;;;;;;;2.05;1.90;;;11.90;99.90;;;;;;5073037;28;20207;-84
2022/09/20 08:12:55;;;;;;;2.03;1.83;;;11.90;99.90;;;;;;5073028;28;20211;-85
2022/09/20 08:15:45;;;;;;;3.25;2.38;;;11.90;99.90;;;;;;5072782;28;20204;-85
2022/09/20 08:18:14;;;;;;;5.03;2.40;;;11.80;99.90;;;;;;5072661;28;20292;-86
2022/09/20 08:20:43;;;;;;;2.58;2.38;;;11.80;99.90;;;;;;5052758;28;20209;-86
2022/09/20 08:23:18;;;;;;;3.20;2.55;;;11.80;99.90;;;;;;5052845;28;20202;-86
2022/09/20 08:25:51;;;;;;;2.78;2.13;;;11.80;99.90;;;;;;5052762;28;20277;-86
2022/09/20 08:28:19;;;;;;;1.77;1.65;;;11.70;99.90;;;;;;5052529;28;20213;-86
2022/09/20 08:30:49;;;;;;;2.60;2.40;;;11.70;99.90;;;;;;5052880;28;20226;-87
2022/09/20 08:33:19;;;;;;;2.97;2.30;;;11.80;99.90;;;;;;5052521;28;20228;-86
2022/09/20 08:35:50;;;;;;;2.88;2.47;;;11.90;99.90;;;;;;5052568;28;20198;-86
2022/09/20 08:38:26;;;;;;;2.50;2.30;;;11.90;99.90;;;;;;5052247;28;20252;-86
2022/09/20 08:41:24;;;;;;;2.95;2.70;;;12.00;99.90;;;;;;5052343;28;20202;-88
2022/09/20 08:43:55;;;;;;;2.60;2.40;;;12.00;99.90;;;;;;5052736;28;20212;-88
2022/09/20 08:46:30;;;;;;;2.70;2.45;;;12.20;99.90;;;;;;5052163;28;20221;-86
2022/09/20 08:48:59;;;;;;;5.22;3.10;;;12.20;99.90;;;;;;5052441;28;20229;-86
2022/09/20 08:51:31;;;;;;;2.88;2.60;;;12.30;99.90;;;;;;5052655;28;20220;-86
2022/09/20 08:54:02;;;;;;;15.60;2.35;;;12.40;99.90;;;;;;5032962;28;20211;-86
2022/09/20 08:56:35;;;;;;;4.20;2.33;;;12.40;99.90;;;;;;5037148;28;20244;-85
2022/09/20 08:59:04;;;;;;;2.15;2.00;;;12.30;99.90;;;;;;5055839;28;20237;-92
2022/09/20 09:01:34;;;;;;;2.33;2.13;;;12.20;99.90;;;;;;5069348;28;20203;-87
2022/09/20 09:04:12;;;;;;;2.70;2.50;;;12.10;99.90;;;;;;5064659;28;20216;-83
2022/09/20 09:06:41;;;;;;;3.72;2.42;;;11.90;99.90;;;;;;5047142;28;20224;-83
2022/09/20 09:09:16;;;;;;;1.60;1.50;;;11.60;99.90;;;;;;5071778;28;20227;-83
2022/09/20 09:11:45;;;;;;;5.55;3.72;;;11.30;99.90;;;;;;5061820;28;20212;-84
2022/09/20 09:17:13;;;;;;;1.70;1.55;;;11.10;99.90;;;;;;5055957;28;20209;-85
2022/09/20 09:19:47;;;;;;;2.05;1.92;;;11.00;99.90;;;;;;5054755;28;20256;-85
2022/09/20 09:22:23;;;;;;;2.10;2.00;;;11.00;99.90;;;;;;5054705;28;20202;-85
2022/09/20 09:25:23;;;;;;;2.10;1.90;;;11.00;99.90;;;;;;5054907;28;20202;-83
2022/09/20 09:27:54;;;;;;;2.25;2.05;;;11.00;99.90;;;;;;5054464;28;20262;-85
2022/09/20 09:30:25;;;;;;;3.25;2.63;;;11.00;99.90;;;;;;5054183;28;20325;-84
2022/09/20 09:33:17;;;;;;;2.65;2.42;;;11.10;99.90;;;;;;5054917;28;20216;-84
2022/09/20 09:35:52;;;;;;;2.47;2.28;;;11.20;99.90;;;;;;5054677;28;20198;-85
2022/09/20 09:38:23;;;;;;;11.95;2.85;;;11.40;99.90;;;;;;5054474;28;20309;-85
2022/09/20 09:40:53;;;;;;;3.03;2.72;;;11.90;99.90;;;;;;5054715;28;20209;-84
2022/09/20 09:43:26;;;;;;;2.60;2.40;;;12.60;99.90;;;;;;5054588;28;20210;-85
2022/09/20 09:45:55;;;;;;;2.65;2.28;;;13.30;99.90;;;;;;5054221;28;20221;-85
2022/09/20 09:48:27;;;;;;;2.13;1.83;;;14.30;99.90;;;;;;5054139;28;20226;-85
2022/09/20 09:51:10;;;;;;;1.50;1.40;;;15.10;99.90;;;;;;5054073;28;20304;-85
2022/09/20 09:53:39;;;;;;;0.90;0.90;;;16.20;99.90;;;;;;5054510;28;20210;-85
2022/09/20 09:56:20;;;;;;;4.97;0.90;;;17.10;99.90;;;;;;5054331;28;20202;-85
2022/09/20 09:59:01;;;;;;;1.15;0.95;;;17.50;99.90;;;;;;5054102;28;20413;-85
2022/09/20 10:01:38;;;;;;;1.30;1.20;;;17.30;99.90;;;;;;5054072;28;20209;-85
2022/09/20 10:04:17;;;;;;;1.00;1.00;;;17.20;99.90;;;;;;5054432;28;20197;-85
2022/09/20 10:06:51;;;;;;;1.23;1.13;;;17.30;99.90;;;;;;5053346;28;20228;-85
2022/09/20 10:09:36;;;;;;;1.15;1.05;;;17.10;99.90;;;;;;5053820;28;20232;-85
2022/09/20 10:12:19;;;;;;;0.95;0.75;;;17.30;99.90;;;;;;5054358;28;20206;-84
2022/09/20 10:15:01;;;;;;;1.25;0.88;;;17.60;99.90;;;;;;5053865;28;20331;-85
2022/09/20 10:17:45;;;;;;;1.00;1.00;;;18.00;99.90;;;;;;5053991;28;20209;-85
2022/09/20 10:20:30;;;;;;;0.68;0.68;;;18.20;99.90;;;;;;5053919;28;20244;-84
2022/09/20 10:23:09;;;;;;;1.30;1.20;;;18.70;99.90;;;;;;5054933;28;20216;-84
2022/09/20 10:26:07;;;;;;;1.10;1.10;;;18.70;99.90;;;;;;5053667;28;20221;-84
2022/09/20 10:28:49;;;;;;;3.17;1.33;;;18.10;99.90;;;;;;5054252;28;20232;-84
2022/09/20 10:31:30;;;;;;;1.58;1.10;;;17.70;99.90;;;;;;5054066;28;20205;-84
2022/09/20 10:34:13;;;;;;;0.90;0.90;;;17.10;99.90;;;;;;5054117;28;20201;-84
2022/09/20 10:36:49;;;;;;;3.30;1.13;;;17.30;99.90;;;;;;5054267;28;20210;-84
2022/09/20 10:39:25;;;;;;;1.20;1.02;;;18.00;99.90;;;;;;5054030;28;20249;-85
2022/09/20 10:45:08;;;;;;;1.83;1.10;;;18.10;99.90;;;;;;5054033;28;20202;-84
2022/09/20 10:47:45;;;;;;;1.08;0.98;;;17.60;99.90;;;;;;5054243;28;20355;-84
2022/09/20 10:50:28;;;;;;;2.40;0.93;;;17.10;99.90;;;;;;5054427;28;20312;-85
2022/09/20 10:53:26;;;;;;;0.40;0.40;;;16.40;99.90;;;;;;5054014;28;20201;-85
2022/09/20 10:56:05;;;;;;;1.08;0.98;;;15.70;99.90;;;;;;5053829;28;20208;-85
2022/09/20 10:59:03;;;;;;;0.75;0.75;;;15.30;99.90;;;;;;5053910;28;20236;-85
2022/09/20 11:01:39;;;;;;;0.98;0.98;;;15.00;99.90;;;;;;5053834;28;20201;-85
2022/09/20 11:04:37;;;;;;;1.95;0.88;;;14.90;99.90;;;;;;5053922;28;20244;-85
2022/09/20 11:07:11;;;;;;;1.63;0.80;;;14.90;99.90;;;;;;5053572;28;20225;-85
2022/09/20 11:09:46;;;;;;;1.02;0.98;;;15.10;99.90;;;;;;5055417;28;20240;-84
2022/09/20 11:12:21;;;;;;;0.80;0.80;;;15.50;99.90;;;;;;5055388;28;20205;-85
2022/09/20 11:14:56;;;;;;;1.42;1.35;;;16.10;99.90;;;;;;5054952;28;20281;-85
2022/09/20 11:17:31;;;;;;;1.08;1.00;;;16.70;99.90;;;;;;5054035;28;20197;-86
2022/09/20 11:20:03;;;;;;;1.15;1.02;;;17.00;99.90;;;;;;5052606;28;20224;-85
2022/09/20 11:22:43;;;;;;;1.60;0.82;;;17.50;99.90;;;;;;5053303;28;20217;-86
2022/09/20 11:25:17;;;;;;;0.85;0.85;;;17.80;99.90;;;;;;5053778;28;20280;-86
2022/09/20 11:27:55;;;;;;;1.00;1.00;;;18.20;99.90;;;;;;5052484;28;20225;-86
2022/09/20 11:30:24;;;;;;;1.08;0.82;;;18.60;99.90;;;;;;5053292;28;20248;-86
2022/09/20 11:33:01;;;;;;;1.25;1.00;;;17.80;99.90;;;;;;5053181;28;20289;-83
2022/09/20 11:35:34;;;;;;;2.60;1.65;;;16.80;99.90;;;;;;5052942;28;20201;-82
2022/09/20 11:38:14;;;;;;;1.00;1.00;;;15.60;99.90;;;;;;5052978;28;20202;-82
2022/09/20 11:40:49;;;;;;;3.38;1.00;;;14.70;99.90;;;;;;5052651;28;20222;-83
2022/09/20 11:43:24;;;;;;;8.60;1.20;;;14.00;99.90;;;;;;5053087;28;20263;-83
2022/09/20 11:45:58;;;;;;;1.40;1.02;;;13.50;99.90;;;;;;5052793;28;20216;-83
2022/09/20 11:48:30;;;;;;;0.85;0.82;;;13.20;99.90;;;;;;5052523;28;20225;-84
2022/09/20 11:51:32;;;;;;;1.02;0.90;;;12.90;99.90;;;;;;5052429;28;20212;-84
2022/09/20 11:54:23;;;;;;;1.00;1.00;;;12.70;99.90;;;;;;5053009;28;20216;-84
2022/09/20 11:56:55;;;;;;;0.70;0.70;;;12.50;99.90;;;;;;5052876;28;20296;-84
2022/09/20 11:59:30;;;;;;;1.00;1.00;;;12.30;99.90;;;;;;5052694;28;20284;-84
2022/09/20 12:02:01;;;;;;;0.70;0.70;;;12.20;99.90;;;;;;5052682;28;20209;-84
2022/09/20 12:04:32;;;;;;;1.50;1.40;;;12.30;99.90;;;;;;5052489;28;20205;-84
2022/09/20 12:07:05;;;;;;;2.40;1.40;;;12.30;99.90;;;;;;5052693;28;20312;-84
2022/09/20 12:09:42;;;;;;;1.85;1.23;;;12.40;99.90;;;;;;5052262;28;20225;-84
2022/09/20 12:12:21;;;;;;;1.25;1.17;;;12.30;99.90;;;;;;5052957;28;20201;-84
2022/09/20 12:14:54;;;;;;;1.23;1.13;;;12.20;99.90;;;;;;5052783;28;20205;-84
2022/09/20 12:18:08;;;;;;;1.00;0.90;;;12.20;99.90;;;;;;5052381;28;20204;-84
2022/09/20 12:21:08;;;;;;;3.70;1.42;;;12.10;99.90;;;;;;5016389;28;20210;-85
2022/09/20 12:24:17;;;;;;;1.25;1.17;;;12.00;99.90;;;;;;4972047;28;20219;-84
2022/09/20 12:26:50;;;;;;;3.25;1.45;;;12.00;99.90;;;;;;5052378;28;20232;-89
2022/09/20 12:30:05;;;;;;;0.90;0.90;;;12.10;99.90;;;;;;5051955;28;20236;-89
2022/09/20 12:32:59;;;;;;;0.93;0.93;;;12.10;99.90;;;;;;5056832;28;20212;-88
2022/09/20 12:36:00;;;;;;;1.25;1.15;;;12.10;99.90;;;;;;5056414;28;20202;-88
2022/09/20 12:38:36;;;;;;;1.23;1.23;;;12.40;99.90;;;;;;5056241;28;20244;-87
2022/09/20 12:41:14;;;;;;;2.38;1.73;;;12.80;99.90;;;;;;5056377;28;20248;-88
2022/09/20 12:44:01;;;;;;;1.85;1.38;;;13.20;99.90;;;;;;5056387;28;20210;-88
2022/09/20 12:46:42;;;;;;;1.52;1.17;;;13.50;99.90;;;;;;5056623;28;20212;-87
2022/09/20 12:55:38;;;;;;;1.67;1.58;;;13.00;99.90;;;;;;5055401;28;20208;-88
2022/09/20 12:58:25;;;;;;;1.02;1.02;;;12.80;99.90;;;;;;5055976;28;20271;-88
2022/09/20 13:01:27;;;;;;;0.60;0.60;;;12.80;99.90;;;;;;5056011;28;20201;-88
2022/09/20 13:04:36;;;;;;;2.78;1.30;;;12.50;99.90;;;;;;5056128;28;20197;-87
2022/09/20 13:07:32;;;;;;;1.08;1.08;;;12.20;99.90;;;;;;5055612;28;20226;-86
2022/09/20 13:10:05;;;;;;;1.25;1.08;;;12.00;99.90;;;;;;5055819;28;20233;-87
2022/09/20 13:12:40;;;;;;;1.33;1.23;;;11.90;99.90;;;;;;5055593;28;20209;-87
2022/09/20 13:15:18;;;;;;;0.85;0.85;;;11.90;99.90;;;;;;5056022;28;20212;-87
2022/09/20 13:17:50;;;;;;;1.33;1.23;;;11.90;99.90;;;;;;5055646;28;20256;-86
2022/09/20 13:20:24;;;;;;;0.82;0.82;;;11.80;99.90;;;;;;5055129;28;20225;-85
2022/09/20 13:22:56;;;;;;;10.15;1.20;;;11.70;99.90;;;;;;5055509;28;20313;-87
2022/09/20 13:25:35;;;;;;;1.05;1.05;;;11.60;99.90;;;;;;5055537;28;20209;-87
2022/09/20 13:28:10;;;;;;;1.00;1.00;;;11.60;99.90;;;;;;5054868;28;20221;-86
2022/09/20 13:30:47;;;;;;;0.88;0.88;;;11.60;99.90;;;;;;5055312;28;20201;-86
2022/09/20 13:33:21;;;;;;;1.02;1.02;;;11.50;99.90;;;;;;5055444;28;20201;-86
2022/09/20 13:35:56;;;;;;;1.35;0.98;;;11.50;99.90;;;;;;5055397;28;20216;-86
2022/09/20 13:38:28;;;;;;;0.85;0.85;;;11.40;99.90;;;;;;5054892;28;20225;-87
2022/09/20 13:41:05;;;;;;;0.73;0.73;;;11.30;99.90;;;;;;5055043;28;20232;-86
2022/09/20 13:43:38;;;;;;;0.82;0.82;;;11.30;99.90;;;;;;5054820;28;20201;-86
2022/09/20 13:46:11;;;;;;;1.40;1.00;;;11.20;99.90;;;;;;5054898;28;20225;-86
2022/09/20 13:48:39;;;;;;;4.20;0.98;;;11.10;99.90;;;;;;5054745;28;20222;-86
2022/09/20 13:51:18;;;;;;;0.55;0.55;;;11.20;99.90;;;;;;5054708;28;20216;-87
2022/09/20 13:53:47;;;;;;;1.40;1.25;;;11.20;99.90;;;;;;5054881;28;20300;-87
2022/09/20 13:56:25;;;;;;;0.90;0.90;;;11.30;99.90;;;;;;5054890;28;20208;-87
2022/09/20 13:58:57;;;;;;;0.52;0.52;;;11.30;99.90;;;;;;5054647;28;20229;-87
2022/09/20 14:01:30;;;;;;;1.10;1.10;;;11.40;99.90;;;;;;5054689;28;20202;-87
2022/09/20 14:04:04;;;;;;;0.68;0.68;;;11.30;99.90;;;;;;5054958;28;20206;-87
2022/09/20 14:06:37;;;;;;;1.15;0.88;;;11.40;99.90;;;;;;5055027;28;20205;-86
2022/09/20 14:09:08;;;;;;;1.58;1.00;;;11.50;99.90;;;;;;5054372;28;20226;-86
2022/09/20 14:11:39;;;;;;;1.08;1.05;;;11.50;99.90;;;;;;5054644;28;20205;-86